Time;durP1;ratioP1;P1;durP2;ratioP2;P2;SDS_P1;SDS_P2;PMS_P1;PMS_P2;Temp;Humidity;BMP_temperature;BMP_pressure;BME280_temperature;BME280_humidity;BME280_pressure;Samples;Min_cycle;Max_cycle;Signal;HPM_P1;HPM_P2
2021/01/21 00:00:06;;;;;;;21.50;12.98;;;;;;;-145.92;100.00;59847.09;1040304;28;20489;-73
2021/01/21 00:00:37;;;;;;;18.50;13.15;;;;;;;-145.92;100.00;59847.09;1036076;28;20037;-74
2021/01/21 00:01:08;;;;;;;19.42;12.98;;;;;;;-145.92;100.00;59847.09;1036230;28;20257;-74
2021/01/21 00:01:39;;;;;;;19.95;13.25;;;;;;;-145.92;100.00;59847.09;1035959;28;20053;-74
2021/01/21 00:02:10;;;;;;;20.67;13.75;;;;;;;-145.92;100.00;59847.09;1024063;29;20062;-74
2021/01/21 00:02:41;;;;;;;20.64;12.98;;;;;;;-145.92;100.00;59847.09;1036103;28;20024;-74
2021/01/21 00:03:11;;;;;;;18.58;13.25;;;;;;;-145.92;100.00;59847.09;1044354;28;20385;-74
2021/01/21 00:03:42;;;;;;;24.98;13.85;;;;;;;-145.92;100.00;59847.09;1035909;28;20037;-74
2021/01/21 00:04:13;;;;;;;21.55;13.75;;;;;;;-145.92;100.00;59847.09;1040309;28;20021;-73
2021/01/21 00:04:44;;;;;;;18.50;13.27;;;;;;;-145.92;100.00;59847.09;1027999;28;20029;-73
2021/01/21 00:05:16;;;;;;;18.10;13.02;;;;;;;-145.92;100.00;59847.09;1036231;28;20386;-74
2021/01/21 00:05:46;;;;;;;18.02;12.18;;;;;;;-145.92;100.00;59847.09;1040157;28;20104;-75
2021/01/21 00:06:17;;;;;;;20.60;13.13;;;;;;;-145.92;100.00;59847.09;1031973;28;20387;-73
2021/01/21 00:06:48;;;;;;;20.63;13.43;;;;;;;-145.92;100.00;59847.09;1040199;28;20029;-74
2021/01/21 00:07:19;;;;;;;21.50;13.55;;;;;;;-145.92;100.00;59847.09;1032141;28;20117;-74
2021/01/21 00:07:50;;;;;;;20.25;13.35;;;;;;;-145.92;100.00;59847.09;1039989;28;20072;-74
2021/01/21 00:08:21;;;;;;;19.27;13.10;;;;;;;-145.92;100.00;59847.09;1040236;28;20029;-74
2021/01/21 00:08:51;;;;;;;22.13;13.15;;;;;;;-145.92;100.00;59847.09;1028041;28;20031;-74
2021/01/21 00:09:22;;;;;;;18.95;13.10;;;;;;;-145.92;100.00;59847.09;1032075;28;20030;-74
2021/01/21 00:09:53;;;;;;;21.95;13.32;;;;;;;-145.92;100.00;59847.09;1036005;28;20075;-74
2021/01/21 00:10:25;;;;;;;19.58;13.93;;;;;;;-145.92;100.00;59847.09;1044282;28;20497;-74
2021/01/21 00:10:56;;;;;;;20.56;13.70;;;;;;;-145.92;100.00;59847.09;1036106;28;20026;-74
2021/01/21 00:11:28;;;;;;;20.25;14.00;;;;;;;-145.92;100.00;59847.09;1044337;28;20124;-74
2021/01/21 00:11:58;;;;;;;18.14;13.14;;;;;;;-145.92;100.00;59847.09;1031925;28;20023;-74
2021/01/21 00:12:29;;;;;;;19.17;13.45;;;;;;;-145.92;100.00;59847.09;1040111;28;20036;-74
2021/01/21 00:13:00;;;;;;;21.05;13.07;;;;;;;-145.92;100.00;59847.09;1036043;28;20022;-73
2021/01/21 00:13:31;;;;;;;17.90;12.48;;;;;;;-145.92;100.00;59847.09;1036187;28;20269;-73
2021/01/21 00:14:02;;;;;;;21.33;13.90;;;;;;;-145.92;100.00;59847.09;1036053;28;20026;-74
2021/01/21 00:14:33;;;;;;;18.63;13.10;;;;;;;-145.92;100.00;59847.09;1032042;28;20050;-74
2021/01/21 00:15:04;;;;;;;21.90;13.65;;;;;;;-145.92;100.00;59847.09;1032066;28;20057;-74
2021/01/21 00:15:35;;;;;;;21.96;13.82;;;;;;;-145.92;100.00;59847.09;1036133;28;20026;-73
2021/01/21 00:16:06;;;;;;;22.80;14.75;;;;;;;-145.92;100.00;59847.09;1032093;28;20022;-74
2021/01/21 00:16:37;;;;;;;19.77;13.10;;;;;;;-145.92;100.00;59847.09;1027931;28;20030;-73
2021/01/21 00:17:08;;;;;;;18.58;13.56;;;;;;;-145.92;100.00;59847.09;1036095;28;20303;-74
2021/01/21 00:17:39;;;;;;;18.73;13.25;;;;;;;-145.92;100.00;59847.09;1036130;28;20378;-74
2021/01/21 00:18:09;;;;;;;19.80;13.85;;;;;;;-145.92;100.00;59847.09;1027901;28;20019;-74
2021/01/21 00:18:40;;;;;;;21.38;13.55;;;;;;;-145.92;100.00;59847.09;1036095;28;20060;-73
2021/01/21 00:19:11;;;;;;;21.23;13.07;;;;;;;-145.92;100.00;59847.09;1028057;28;20023;-74
2021/01/21 00:19:42;;;;;;;18.45;12.77;;;;;;;-145.92;100.00;59847.09;1036186;28;20578;-74
2021/01/21 00:20:13;;;;;;;20.77;14.02;;;;;;;-145.92;100.00;59847.09;1036054;28;20032;-73
2021/01/21 00:20:44;;;;;;;19.80;13.24;;;;;;;-145.92;100.00;59847.09;1031953;28;20133;-73
2021/01/21 00:21:15;;;;;;;21.35;13.80;;;;;;;-145.92;100.00;59847.09;1031992;28;20065;-74
2021/01/21 00:21:46;;;;;;;20.05;12.93;;;;;;;-145.92;100.00;59847.09;1032079;28;20026;-74
2021/01/21 00:22:16;;;;;;;20.92;14.35;;;;;;;-145.92;100.00;59847.09;1031914;28;20023;-74
2021/01/21 00:22:47;;;;;;;23.88;15.07;;;;;;;-145.92;100.00;59847.09;1040173;28;20468;-74
2021/01/21 00:23:18;;;;;;;21.10;13.00;;;;;;;-145.92;100.00;59847.09;1040397;28;20484;-73
2021/01/21 00:23:49;;;;;;;18.30;13.05;;;;;;;-145.92;100.00;59847.09;1032042;28;20027;-74
2021/01/21 00:24:20;;;;;;;21.32;13.66;;;;;;;-145.92;100.00;59847.09;1036191;28;20494;-74
2021/01/21 00:24:51;;;;;;;22.65;13.15;;;;;;;-145.92;100.00;59847.09;1031970;28;20034;-74
2021/01/21 00:25:21;;;;;;;21.92;14.45;;;;;;;-145.92;100.00;59847.09;1028059;28;20455;-74
2021/01/21 00:25:53;;;;;;;20.58;14.07;;;;;;;-145.92;100.00;59847.09;1036167;28;20025;-74
2021/01/21 00:26:25;;;;;;;20.90;14.10;;;;;;;-145.92;100.00;59847.09;1040222;28;20105;-75
2021/01/21 00:26:56;;;;;;;19.20;13.04;;;;;;;-145.92;100.00;59847.09;1035901;28;20045;-74
2021/01/21 00:27:26;;;;;;;18.33;12.77;;;;;;;-145.92;100.00;59847.09;1040244;28;20155;-73
2021/01/21 00:27:57;;;;;;;20.35;13.50;;;;;;;-145.92;100.00;59847.09;1032022;28;20475;-73
2021/01/21 00:28:28;;;;;;;18.00;12.38;;;;;;;-145.92;100.00;59847.09;1028069;28;20472;-74
2021/01/21 00:28:58;;;;;;;20.98;12.93;;;;;;;-145.92;100.00;59847.09;1035994;28;20549;-74
2021/01/21 00:29:30;;;;;;;17.50;12.55;;;;;;;-145.92;100.00;59847.09;1036056;28;20461;-74
2021/01/21 00:30:03;;;;;;;19.70;13.36;;;;;;;-145.92;100.00;59847.09;1028106;28;20018;-73
2021/01/21 00:30:34;;;;;;;19.36;12.08;;;;;;;-145.92;100.00;59847.09;1027939;28;20070;-74
2021/01/21 00:31:04;;;;;;;19.95;13.38;;;;;;;-145.92;100.00;59847.09;1027896;28;20038;-74
2021/01/21 00:31:35;;;;;;;21.20;14.00;;;;;;;-145.92;100.00;59847.09;1031967;28;20024;-74
2021/01/21 00:32:06;;;;;;;20.10;13.02;;;;;;;-145.92;100.00;59847.09;1036027;28;20518;-74
2021/01/21 00:32:37;;;;;;;22.00;13.75;;;;;;;-145.92;100.00;59847.09;1024042;28;20033;-74
2021/01/21 00:33:08;;;;;;;19.42;14.02;;;;;;;-145.92;100.00;59847.09;1035891;28;20021;-74
2021/01/21 00:33:38;;;;;;;19.65;12.95;;;;;;;-145.92;100.00;59847.09;1032002;28;20261;-73
2021/01/21 00:34:09;;;;;;;17.27;12.07;;;;;;;-145.92;100.00;59847.09;1040163;28;20041;-73
2021/01/21 00:34:40;;;;;;;19.70;13.62;;;;;;;-145.92;100.00;59847.09;1036101;28;20470;-73
2021/01/21 00:35:14;;;;;;;18.70;13.27;;;;;;;-145.92;100.00;59847.09;1031747;28;20040;-74
2021/01/21 00:35:45;;;;;;;18.74;13.30;;;;;;;-145.92;100.00;59847.09;1036043;28;20022;-73
2021/01/21 00:36:16;;;;;;;19.08;13.13;;;;;;;-145.92;100.00;59847.09;1040152;28;20029;-74
2021/01/21 00:36:46;;;;;;;20.98;12.95;;;;;;;-145.92;100.00;59847.09;1040161;28;20060;-74
2021/01/21 00:37:17;;;;;;;18.80;12.55;;;;;;;-145.92;100.00;59847.09;1039967;28;20556;-74
2021/01/21 00:37:48;;;;;;;20.48;12.73;;;;;;;-145.92;100.00;59847.09;1031977;28;20030;-74
2021/01/21 00:38:18;;;;;;;18.73;12.90;;;;;;;-145.92;100.00;59847.09;1036062;28;20517;-73
2021/01/21 00:38:49;;;;;;;18.85;12.38;;;;;;;-145.92;100.00;59847.09;1031961;28;20026;-74
2021/01/21 00:39:20;;;;;;;20.65;13.00;;;;;;;-145.92;100.00;59847.09;1035926;28;20022;-75
2021/01/21 00:39:52;;;;;;;17.70;12.40;;;;;;;-145.92;100.00;59847.09;1035980;28;20030;-73
2021/01/21 00:40:22;;;;;;;17.98;12.40;;;;;;;-145.92;100.00;59847.09;1032060;28;20081;-74
2021/01/21 00:40:53;;;;;;;18.92;12.68;;;;;;;-145.92;100.00;59847.09;1031969;28;20022;-74
2021/01/21 00:41:24;;;;;;;21.75;11.63;;;;;;;-145.92;100.00;59847.09;1035962;28;20025;-74
2021/01/21 00:41:54;;;;;;;16.33;12.02;;;;;;;-145.92;100.00;59847.09;1039977;28;20022;-73
2021/01/21 00:42:25;;;;;;;17.70;13.25;;;;;;;-145.92;100.00;59847.09;1035989;28;20470;-73
2021/01/21 00:42:56;;;;;;;21.20;13.73;;;;;;;-145.92;100.00;59847.09;1036059;28;20112;-73
2021/01/21 00:43:27;;;;;;;21.05;13.10;;;;;;;-145.92;100.00;59847.09;1035830;28;20494;-74
2021/01/21 00:43:58;;;;;;;18.77;12.68;;;;;;;-145.92;100.00;59847.09;1031585;28;20018;-73
2021/01/21 00:44:29;;;;;;;19.10;13.13;;;;;;;-145.92;100.00;59847.09;1035983;28;20029;-73
2021/01/21 00:45:00;;;;;;;17.10;12.40;;;;;;;-145.92;100.00;59847.09;1036443;28;20028;-73
2021/01/21 00:45:30;;;;;;;19.55;12.90;;;;;;;-145.92;100.00;59847.09;1027824;28;20030;-74
2021/01/21 00:46:01;;;;;;;17.35;12.65;;;;;;;-145.92;100.00;59847.09;1040162;28;20026;-73
2021/01/21 00:46:33;;;;;;;18.08;12.13;;;;;;;-145.92;100.00;59847.09;1028110;28;20027;-75
2021/01/21 00:47:04;;;;;;;18.18;12.18;;;;;;;-145.92;100.00;59847.09;1037040;28;20088;-74
2021/01/21 00:47:35;;;;;;;15.88;11.32;;;;;;;-145.92;100.00;59847.09;1032014;28;20184;-73
2021/01/21 00:48:06;;;;;;;19.40;12.32;;;;;;;-145.92;100.00;59847.09;1040290;28;20032;-73
2021/01/21 00:48:37;;;;;;;17.26;12.98;;;;;;;-145.92;100.00;59847.09;1036071;28;20288;-73
2021/01/21 00:49:08;;;;;;;18.52;12.24;;;;;;;-145.92;100.00;59847.09;1036307;28;20121;-73
2021/01/21 00:49:39;;;;;;;17.84;11.32;;;;;;;-145.92;100.00;59847.09;1027971;28;20026;-73
2021/01/21 00:50:11;;;;;;;19.67;12.05;;;;;;;-145.92;100.00;59847.09;1036280;28;20021;-72
2021/01/21 00:50:42;;;;;;;18.84;12.22;;;;;;;-145.92;100.00;59847.09;1036252;28;20018;-73
2021/01/21 00:51:12;;;;;;;20.92;12.36;;;;;;;-145.92;100.00;59847.09;1036230;28;20025;-73
2021/01/21 00:51:53;;;;;;;23.04;12.92;;;;;;;-145.92;100.00;59847.09;1044420;28;20009;-74
2021/01/21 00:52:24;;;;;;;19.13;12.70;;;;;;;-145.92;100.00;59847.09;1033567;28;20025;-73
2021/01/21 00:52:55;;;;;;;19.56;12.58;;;;;;;-145.92;100.00;59847.09;1036732;28;20104;-75
2021/01/21 00:53:26;;;;;;;18.23;12.45;;;;;;;-145.92;100.00;59847.09;1026002;29;20476;-75
2021/01/21 00:53:57;;;;;;;17.83;11.60;;;;;;;-145.92;100.00;59847.09;1041656;28;20536;-75
2021/01/21 00:54:28;;;;;;;19.06;12.54;;;;;;;-145.92;100.00;59847.09;1033711;28;20161;-76
2021/01/21 00:54:59;;;;;;;17.58;11.75;;;;;;;-145.92;100.00;59847.09;1038147;28;20017;-75
2021/01/21 00:55:30;;;;;;;16.77;12.57;;;;;;;-145.92;100.00;59847.09;1034361;28;20037;-75
2021/01/21 00:56:00;;;;;;;17.27;12.25;;;;;;;-145.92;100.00;59847.09;1034052;28;20023;-75
2021/01/21 00:56:31;;;;;;;16.25;11.43;;;;;;;-145.92;100.00;59847.09;1042732;28;20044;-75
2021/01/21 00:57:02;;;;;;;18.63;12.35;;;;;;;-145.92;100.00;59847.09;1034418;28;20078;-76
2021/01/21 00:57:32;;;;;;;17.30;13.02;;;;;;;-145.92;100.00;59847.09;1026287;29;20030;-76
2021/01/21 00:58:03;;;;;;;16.85;11.07;;;;;;;-145.92;100.00;59847.09;1042441;28;20032;-74
2021/01/21 00:58:34;;;;;;;17.33;11.45;;;;;;;-145.92;100.00;59847.09;1026001;28;20023;-75
2021/01/21 00:59:05;;;;;;;16.42;12.45;;;;;;;-145.92;100.00;59847.09;1042411;28;20029;-76
2021/01/21 00:59:35;;;;;;;18.98;12.90;;;;;;;-145.92;100.00;59847.09;1038063;28;20024;-76
2021/01/21 01:00:08;;;;;;;17.48;11.75;;;;;;;-145.92;100.00;59847.09;1030091;28;20033;-75
2021/01/21 01:00:39;;;;;;;18.88;11.84;;;;;;;-145.92;100.00;59847.09;1038003;28;20040;-74
2021/01/21 01:01:10;;;;;;;16.08;11.30;;;;;;;-145.92;100.00;59847.09;1046483;28;20041;-76
2021/01/21 01:01:41;;;;;;;16.42;10.80;;;;;;;-145.92;100.00;59847.09;1034091;28;20105;-75
2021/01/21 01:02:11;;;;;;;20.75;12.15;;;;;;;-145.92;100.00;59847.09;1041573;28;20065;-75
2021/01/21 01:02:42;;;;;;;18.10;12.27;;;;;;;-145.92;100.00;59847.09;1035965;28;20485;-75
2021/01/21 01:03:13;;;;;;;20.48;13.23;;;;;;;-145.92;100.00;59847.09;1027903;28;20015;-76
2021/01/21 01:03:44;;;;;;;17.90;11.80;;;;;;;-145.92;100.00;59847.09;1035998;28;20036;-75
2021/01/21 01:04:15;;;;;;;19.45;12.38;;;;;;;-145.92;100.00;59847.09;1031748;28;20030;-76
2021/01/21 01:04:45;;;;;;;15.43;11.63;;;;;;;-145.92;100.00;59847.09;1036133;28;20105;-76
2021/01/21 01:05:16;;;;;;;17.27;11.38;;;;;;;-145.92;100.00;59847.09;1036075;28;20029;-76
2021/01/21 01:05:47;;;;;;;17.35;11.25;;;;;;;-145.92;100.00;59847.09;1032054;28;20026;-76
2021/01/21 01:06:18;;;;;;;15.38;10.40;;;;;;;-145.92;100.00;59847.09;1028033;28;20095;-76
2021/01/21 01:06:49;;;;;;;18.70;11.46;;;;;;;-145.92;100.00;59847.09;1028083;28;20029;-76
2021/01/21 01:07:20;;;;;;;16.50;11.60;;;;;;;-145.92;100.00;59847.09;1028099;28;20403;-76
2021/01/21 01:07:51;;;;;;;17.65;11.98;;;;;;;-145.92;100.00;59847.09;1040046;28;20112;-76
2021/01/21 01:08:22;;;;;;;16.54;11.30;;;;;;;-145.92;100.00;59847.09;1035939;28;20371;-76
2021/01/21 01:08:53;;;;;;;18.63;12.13;;;;;;;-145.92;100.00;59847.09;1027968;28;20023;-76
2021/01/21 01:09:24;;;;;;;17.73;12.07;;;;;;;-145.92;100.00;59847.09;1032047;28;20072;-76
2021/01/21 01:09:54;;;;;;;16.27;11.68;;;;;;;-145.92;100.00;59847.09;1036254;28;20260;-76
2021/01/21 01:10:25;;;;;;;17.83;11.85;;;;;;;-145.92;100.00;59847.09;1027894;28;20022;-75
2021/01/21 01:10:56;;;;;;;17.63;11.18;;;;;;;-145.92;100.00;59847.09;1031968;28;20105;-76
2021/01/21 01:11:27;;;;;;;17.23;11.70;;;;;;;-145.92;100.00;59847.09;1040138;28;20398;-76
2021/01/21 01:11:58;;;;;;;18.33;11.60;;;;;;;-145.92;100.00;59847.09;1036004;28;20067;-76
2021/01/21 01:12:29;;;;;;;16.52;11.25;;;;;;;-145.92;100.00;59847.09;1036057;28;20041;-75
2021/01/21 01:13:00;;;;;;;18.88;11.43;;;;;;;-145.92;100.00;59847.09;1036136;28;20022;-76
2021/01/21 01:13:31;;;;;;;19.73;11.90;;;;;;;-145.92;100.00;59847.09;1032138;28;20030;-75
2021/01/21 01:14:02;;;;;;;18.58;11.12;;;;;;;-145.92;100.00;59847.09;1028025;28;20030;-76
2021/01/21 01:14:32;;;;;;;18.17;11.45;;;;;;;-145.92;100.00;59847.09;1031973;28;20030;-75
2021/01/21 01:15:05;;;;;;;16.58;10.95;;;;;;;-145.92;100.00;59847.09;1035968;28;20086;-76
2021/01/21 01:15:36;;;;;;;18.26;11.44;;;;;;;-145.92;100.00;59847.09;1040201;28;20025;-76
2021/01/21 01:16:09;;;;;;;16.85;11.77;;;;;;;-145.92;100.00;59847.09;1040316;28;20033;-76
2021/01/21 01:16:40;;;;;;;18.02;11.56;;;;;;;-145.92;100.00;59847.09;1031813;28;20356;-75
2021/01/21 01:17:10;;;;;;;19.02;12.00;;;;;;;-145.92;100.00;59847.09;1040177;28;20033;-76
2021/01/21 01:17:41;;;;;;;16.23;11.05;;;;;;;-145.92;100.00;59847.09;1032100;28;20038;-76
2021/01/21 01:18:12;;;;;;;15.27;10.93;;;;;;;-145.92;100.00;59847.09;1039991;28;20029;-76
2021/01/21 01:18:43;;;;;;;16.05;11.13;;;;;;;-145.92;100.00;59847.09;1036043;28;20021;-76
2021/01/21 01:19:14;;;;;;;15.48;11.38;;;;;;;-145.92;100.00;59847.09;1031950;28;20534;-76
2021/01/21 01:19:44;;;;;;;18.48;11.23;;;;;;;-145.92;100.00;59847.09;1027999;28;20143;-75
2021/01/21 01:20:16;;;;;;;17.42;11.52;;;;;;;-145.92;100.00;59847.09;1036156;28;20245;-76
2021/01/21 01:20:48;;;;;;;17.50;11.12;;;;;;;-145.92;100.00;59847.09;1031921;28;20116;-75
2021/01/21 01:21:19;;;;;;;16.82;10.94;;;;;;;-145.92;100.00;59847.09;1035899;28;20114;-76
2021/01/21 01:21:50;;;;;;;16.00;11.20;;;;;;;-145.92;100.00;59847.09;1032082;28;20042;-76
2021/01/21 01:22:21;;;;;;;18.73;11.80;;;;;;;-145.92;100.00;59847.09;1036073;28;20029;-76
2021/01/21 01:22:52;;;;;;;17.33;12.23;;;;;;;-145.92;100.00;59847.09;1035732;28;20036;-75
2021/01/21 01:23:23;;;;;;;15.78;10.90;;;;;;;-145.92;100.00;59847.09;1031843;28;20018;-76
2021/01/21 01:23:54;;;;;;;15.23;11.10;;;;;;;-145.92;100.00;59847.09;1032002;28;20068;-76
2021/01/21 01:24:25;;;;;;;15.05;11.20;;;;;;;-145.92;100.00;59847.09;1036118;28;20018;-76
2021/01/21 01:24:55;;;;;;;15.45;10.32;;;;;;;-145.92;100.00;59847.09;1023893;29;20019;-75
2021/01/21 01:25:26;;;;;;;16.20;11.25;;;;;;;-145.92;100.00;59847.09;1027986;28;20015;-76
2021/01/21 01:25:58;;;;;;;18.05;11.40;;;;;;;-145.92;100.00;59847.09;1032025;28;20424;-75
2021/01/21 01:26:29;;;;;;;19.76;11.52;;;;;;;-145.92;100.00;59847.09;1028068;28;20023;-76
2021/01/21 01:26:59;;;;;;;15.00;10.60;;;;;;;-145.92;100.00;59847.09;1031880;28;20037;-76
2021/01/21 01:27:30;;;;;;;16.62;11.06;;;;;;;-145.92;100.00;59847.09;1027985;28;20138;-76
2021/01/21 01:28:02;;;;;;;16.23;12.63;;;;;;;-145.92;100.00;59847.09;1035919;28;20021;-76
2021/01/21 01:28:38;;;;;;;17.18;10.90;;;;;;;-145.92;100.00;59847.09;1028108;28;20033;-76
2021/01/21 01:29:08;;;;;;;16.28;11.20;;;;;;;-145.92;100.00;59847.09;1039845;28;20136;-76
2021/01/21 01:29:39;;;;;;;15.90;10.68;;;;;;;-145.92;100.00;59847.09;1023828;28;20098;-76
2021/01/21 01:30:12;;;;;;;15.45;10.82;;;;;;;-145.92;100.00;59847.09;1036033;28;20083;-76
2021/01/21 01:30:43;;;;;;;15.78;10.60;;;;;;;-145.92;100.00;59847.09;1035999;28;20022;-75
2021/01/21 01:31:14;;;;;;;14.48;10.27;;;;;;;-145.92;100.00;59847.09;1035897;28;20025;-76
2021/01/21 01:31:45;;;;;;;17.98;10.95;;;;;;;-145.92;100.00;59847.09;1031750;28;20019;-76
2021/01/21 01:32:16;;;;;;;16.86;11.08;;;;;;;-145.92;100.00;59847.09;1035888;28;20310;-75
2021/01/21 01:32:47;;;;;;;17.10;11.40;;;;;;;-145.92;100.00;59847.09;1040098;28;20100;-76
2021/01/21 01:33:18;;;;;;;16.44;11.42;;;;;;;-145.92;100.00;59847.09;1023904;29;20251;-75
2021/01/21 01:33:49;;;;;;;16.17;11.45;;;;;;;-145.92;100.00;59847.09;1040074;28;20017;-75
2021/01/21 01:34:20;;;;;;;17.70;11.18;;;;;;;-145.92;100.00;59847.09;1023929;29;20037;-76
2021/01/21 01:34:50;;;;;;;16.02;11.50;;;;;;;-145.92;100.00;59847.09;1027964;28;20011;-76
2021/01/21 01:35:21;;;;;;;17.40;12.20;;;;;;;-145.92;100.00;59847.09;1035752;28;20026;-75
2021/01/21 01:35:52;;;;;;;18.05;11.50;;;;;;;-145.92;100.00;59847.09;1035968;28;20021;-76
2021/01/21 01:36:23;;;;;;;16.14;11.06;;;;;;;-145.92;100.00;59847.09;1035944;28;20261;-76
2021/01/21 01:36:54;;;;;;;18.35;11.70;;;;;;;-145.92;100.00;59847.09;1040133;28;20365;-76
2021/01/21 01:37:25;;;;;;;17.17;10.65;;;;;;;-145.92;100.00;59847.09;1031793;28;20014;-75
2021/01/21 01:37:56;;;;;;;15.18;10.98;;;;;;;-145.92;100.00;59847.09;1027736;28;20022;-76
2021/01/21 01:38:26;;;;;;;15.98;10.95;;;;;;;-145.92;100.00;59847.09;1036008;28;20037;-76
2021/01/21 01:38:58;;;;;;;16.38;10.93;;;;;;;-145.92;100.00;59847.09;1027960;28;20029;-76
2021/01/21 01:39:28;;;;;;;17.30;11.52;;;;;;;-145.92;100.00;59847.09;1039904;28;20025;-76
2021/01/21 01:39:59;;;;;;;16.02;11.23;;;;;;;-145.92;100.00;59847.09;1031779;28;20026;-76
2021/01/21 01:40:31;;;;;;;17.42;11.05;;;;;;;-145.92;100.00;59847.09;1035992;28;20014;-76
2021/01/21 01:41:01;;;;;;;18.38;11.42;;;;;;;-145.92;100.00;59847.09;1032014;28;20011;-76
2021/01/21 01:41:32;;;;;;;15.68;10.60;;;;;;;-145.92;100.00;59847.09;1027976;28;20023;-76
2021/01/21 01:42:10;;;;;;;17.35;11.98;;;;;;;-145.92;100.00;59847.09;1035914;28;20460;-76
2021/01/21 01:42:42;;;;;;;18.26;10.98;;;;;;;-145.92;100.00;59847.09;1027967;28;20066;-75
2021/01/21 01:43:13;;;;;;;18.58;11.38;;;;;;;-145.92;100.00;59847.09;1031907;28;20037;-76
2021/01/21 01:43:44;;;;;;;14.57;10.75;;;;;;;-145.92;100.00;59847.09;1031932;28;20593;-75
2021/01/21 01:44:14;;;;;;;18.77;11.38;;;;;;;-145.92;100.00;59847.09;1040012;28;20029;-76
2021/01/21 01:44:46;;;;;;;18.77;11.35;;;;;;;-145.92;100.00;59847.09;1023810;29;20028;-76
2021/01/21 01:45:17;;;;;;;14.16;10.38;;;;;;;-145.92;100.00;59847.09;1028077;28;20059;-76
2021/01/21 01:45:48;;;;;;;16.65;11.20;;;;;;;-145.92;100.00;59847.09;1039903;28;20025;-75
2021/01/21 01:46:19;;;;;;;17.15;11.40;;;;;;;-145.92;100.00;59847.09;1031834;28;20033;-76
2021/01/21 01:46:50;;;;;;;16.83;11.88;;;;;;;-145.92;100.00;59847.09;1035949;28;20289;-76
2021/01/21 01:47:21;;;;;;;16.23;11.68;;;;;;;-145.92;100.00;59847.09;1031989;28;20141;-75
2021/01/21 01:47:52;;;;;;;15.73;10.63;;;;;;;-145.92;100.00;59847.09;1035665;28;20033;-75
2021/01/21 01:48:23;;;;;;;16.40;11.15;;;;;;;-145.92;100.00;59847.09;1039921;28;20056;-76
2021/01/21 01:48:57;;;;;;;18.92;11.94;;;;;;;-145.92;100.00;59847.09;1027696;28;20078;-76
2021/01/21 01:49:28;;;;;;;16.88;11.62;;;;;;;-145.92;100.00;59847.09;1040076;28;20033;-75
2021/01/21 01:49:59;;;;;;;16.22;10.72;;;;;;;-145.92;100.00;59847.09;1039915;28;20507;-76
2021/01/21 01:50:30;;;;;;;15.52;11.35;;;;;;;-145.92;100.00;59847.09;1035953;28;20018;-76
2021/01/21 01:51:01;;;;;;;17.05;11.15;;;;;;;-145.92;100.00;59847.09;1031998;28;20022;-75
2021/01/21 01:51:32;;;;;;;18.16;11.44;;;;;;;-145.92;100.00;59847.09;1031871;28;20027;-75
2021/01/21 01:52:03;;;;;;;17.83;11.68;;;;;;;-145.92;100.00;59847.09;1031846;28;20057;-75
2021/01/21 01:52:35;;;;;;;16.80;12.00;;;;;;;-145.92;100.00;59847.09;1035865;28;20022;-76
2021/01/21 01:53:06;;;;;;;15.36;10.36;;;;;;;-145.92;100.00;59847.09;1031929;28;20031;-76
2021/01/21 01:53:37;;;;;;;16.17;10.77;;;;;;;-145.92;100.00;59847.09;1035847;28;20026;-75
2021/01/21 01:54:08;;;;;;;16.10;11.60;;;;;;;-145.92;100.00;59847.09;1031866;28;20023;-75
2021/01/21 01:54:40;;;;;;;16.63;10.52;;;;;;;-145.92;100.00;59847.09;1031789;28;20286;-75
2021/01/21 01:55:12;;;;;;;17.82;11.32;;;;;;;-145.92;100.00;59847.09;1035901;28;20028;-76
2021/01/21 01:55:43;;;;;;;15.38;11.28;;;;;;;-145.92;100.00;59847.09;1032531;28;20482;-76
2021/01/21 01:56:14;;;;;;;16.25;10.73;;;;;;;-145.92;100.00;59847.09;1040868;28;20021;-75
2021/01/21 01:56:46;;;;;;;19.85;12.25;;;;;;;-145.92;100.00;59847.09;1040834;28;20148;-76
2021/01/21 01:57:16;;;;;;;16.28;11.38;;;;;;;-145.92;100.00;59847.09;1040880;28;20037;-76
2021/01/21 01:57:50;;;;;;;18.23;11.88;;;;;;;-145.92;100.00;59847.09;1036729;28;20033;-76
2021/01/21 01:58:21;;;;;;;17.84;11.56;;;;;;;-145.92;100.00;59847.09;1032735;28;20022;-76
2021/01/21 01:58:52;;;;;;;18.25;11.55;;;;;;;-145.92;100.00;59847.09;1032645;28;20080;-76
2021/01/21 01:59:23;;;;;;;17.45;11.52;;;;;;;-145.92;100.00;59847.09;1032698;28;20030;-75
2021/01/21 01:59:55;;;;;;;14.32;10.52;;;;;;;-145.92;100.00;59847.09;1040872;28;20029;-76
2021/01/21 02:00:26;;;;;;;18.22;11.24;;;;;;;-145.92;100.00;59847.09;1028835;28;20488;-75
2021/01/21 02:00:57;;;;;;;17.80;11.80;;;;;;;-145.92;100.00;59847.09;1044925;28;20052;-76
2021/01/21 02:01:28;;;;;;;17.08;11.60;;;;;;;-145.92;100.00;59847.09;1036784;28;20265;-76
2021/01/21 02:02:00;;;;;;;16.20;10.73;;;;;;;-145.92;100.00;59847.09;1028821;28;20014;-76
2021/01/21 02:02:30;;;;;;;17.74;12.40;;;;;;;-145.92;100.00;59847.09;1032498;28;20419;-75
2021/01/21 02:03:01;;;;;;;17.73;12.18;;;;;;;-145.92;100.00;59847.09;1036672;28;20061;-76
2021/01/21 02:03:32;;;;;;;24.16;12.30;;;;;;;-145.92;100.00;59847.09;1032881;28;20030;-76
2021/01/21 02:04:03;;;;;;;16.85;11.02;;;;;;;-145.92;100.00;59847.09;1032700;28;20031;-75
2021/01/21 02:04:34;;;;;;;18.00;11.38;;;;;;;-145.92;100.00;59847.09;1036712;28;20120;-75
2021/01/21 02:05:06;;;;;;;18.75;10.95;;;;;;;-145.92;100.00;59847.09;1032761;28;20058;-76
2021/01/21 02:05:37;;;;;;;16.75;11.57;;;;;;;-145.92;100.00;59847.09;1040969;28;20421;-75
2021/01/21 02:06:08;;;;;;;18.00;11.55;;;;;;;-145.92;100.00;59847.09;1032667;28;20265;-76
2021/01/21 02:06:39;;;;;;;19.56;12.02;;;;;;;-145.92;100.00;59847.09;1036741;28;20061;-76
2021/01/21 02:07:10;;;;;;;15.93;11.45;;;;;;;-145.92;100.00;59847.09;1032627;28;20545;-75
2021/01/21 02:07:40;;;;;;;16.17;11.20;;;;;;;-145.92;100.00;59847.09;1028686;28;20422;-76
2021/01/21 02:08:11;;;;;;;16.92;11.55;;;;;;;-145.92;100.00;59847.09;1032729;28;20472;-76
2021/01/21 02:08:42;;;;;;;15.30;10.88;;;;;;;-145.92;100.00;59847.09;1032673;28;20119;-75
2021/01/21 02:09:13;;;;;;;18.00;11.32;;;;;;;-145.92;100.00;59847.09;1032692;28;20076;-76
2021/01/21 02:09:44;;;;;;;16.70;11.32;;;;;;;-145.92;100.00;59847.09;1032633;28;20491;-75
2021/01/21 02:10:16;;;;;;;19.08;11.63;;;;;;;-145.92;100.00;59847.09;1032775;28;20077;-76
2021/01/21 02:10:47;;;;;;;17.68;11.84;;;;;;;-145.92;100.00;59847.09;1032491;28;20445;-76
2021/01/21 02:11:28;;;;;;;17.35;11.60;;;;;;;-145.92;100.00;59847.09;1032697;28;20030;-76
2021/01/21 02:12:12;;;;;;;18.12;10.86;;;;;;;-145.92;100.00;59847.09;1036681;28;20025;-76
2021/01/21 02:12:59;;;;;;;16.82;10.88;;;;;;;-145.92;100.00;59847.09;1036629;28;20097;-76
2021/01/21 02:13:47;;;;;;;19.32;11.42;;;;;;;-145.92;100.00;59847.09;1041028;28;20025;-76
2021/01/21 02:14:22;;;;;;;18.68;10.98;;;;;;;-145.92;100.00;59847.09;1024599;28;20031;-76
2021/01/21 02:15:04;;;;;;;15.36;11.22;;;;;;;-145.92;100.00;59847.09;1032612;28;20018;-75
2021/01/21 02:15:54;;;;;;;14.92;10.72;;;;;;;-145.92;100.00;59847.09;1028743;28;20050;-76
2021/01/21 02:16:35;;;;;;;14.80;9.88;;;;;;;-145.92;100.00;59847.09;1032762;28;20029;-76
2021/01/21 02:17:07;;;;;;;17.30;10.98;;;;;;;-145.92;100.00;59847.09;1036539;28;20028;-75
2021/01/21 02:17:41;;;;;;;14.38;10.12;;;;;;;-145.92;100.00;59847.09;1032478;28;20125;-75
2021/01/21 02:18:14;;;;;;;17.04;11.62;;;;;;;-145.92;100.00;59847.09;1040691;28;20092;-76
2021/01/21 02:19:05;;;;;;;15.46;11.00;;;;;;;-145.92;100.00;59847.09;1028794;28;20023;-76
2021/01/21 02:19:51;;;;;;;18.90;11.06;;;;;;;-145.92;100.00;59847.09;1036679;28;20033;-76
2021/01/21 02:20:30;;;;;;;17.62;10.98;;;;;;;-145.92;100.00;59847.09;1028674;28;20031;-75